sensor_id;sensor_type;location;lat;lon;timestamp;P1;durP1;ratioP1;P2;durP2;ratioP2
79143;SDS011;68551;47.484;19.092;2023-04-03T00:00:50;7.03;;;4.32;;
79143;SDS011;68551;47.484;19.092;2023-04-03T00:03:55;5.50;;;4.10;;
79143;SDS011;68551;47.484;19.092;2023-04-03T00:07:00;4.43;;;3.47;;
79143;SDS011;68551;47.484;19.092;2023-04-03T00:10:05;7.53;;;4.20;;
79143;SDS011;68551;47.484;19.092;2023-04-03T00:13:08;6.22;;;4.20;;
79143;SDS011;68551;47.484;19.092;2023-04-03T00:16:13;6.75;;;4.20;;
79143;SDS011;68551;47.484;19.092;2023-04-03T00:19:15;6.18;;;3.92;;
79143;SDS011;68551;47.484;19.092;2023-04-03T00:22:20;5.97;;;4.20;;
79143;SDS011;68551;47.484;19.092;2023-04-03T00:25:25;6.00;;;4.53;;
79143;SDS011;68551;47.484;19.092;2023-04-03T00:28:30;4.97;;;4.13;;
79143;SDS011;68551;47.484;19.092;2023-04-03T00:31:32;6.93;;;4.60;;
79143;SDS011;68551;47.484;19.092;2023-04-03T00:34:38;6.78;;;4.90;;
79143;SDS011;68551;47.484;19.092;2023-04-03T00:37:45;6.68;;;4.07;;
79143;SDS011;68551;47.484;19.092;2023-04-03T00:40:50;5.65;;;4.20;;
79143;SDS011;68551;47.484;19.092;2023-04-03T00:43:57;6.40;;;4.82;;
79143;SDS011;68551;47.484;19.092;2023-04-03T00:47:00;6.07;;;4.30;;
79143;SDS011;68551;47.484;19.092;2023-04-03T00:50:10;6.93;;;4.90;;
79143;SDS011;68551;47.484;19.092;2023-04-03T00:53:16;5.22;;;4.15;;
79143;SDS011;68551;47.484;19.092;2023-04-03T00:56:23;6.43;;;4.13;;
79143;SDS011;68551;47.484;19.092;2023-04-03T00:59:33;5.88;;;4.15;;
79143;SDS011;68551;47.484;19.092;2023-04-03T01:02:37;6.45;;;4.55;;
79143;SDS011;68551;47.484;19.092;2023-04-03T01:05:45;6.43;;;4.32;;
79143;SDS011;68551;47.484;19.092;2023-04-03T01:08:48;8.00;;;4.75;;
79143;SDS011;68551;47.484;19.092;2023-04-03T01:11:51;6.10;;;4.10;;
79143;SDS011;68551;47.484;19.092;2023-04-03T01:14:57;6.40;;;4.20;;
79143;SDS011;68551;47.484;19.092;2023-04-03T01:18:03;5.57;;;3.70;;
79143;SDS011;68551;47.484;19.092;2023-04-03T01:24:51;7.40;;;4.50;;
79143;SDS011;68551;47.484;19.092;2023-04-03T01:27:55;6.78;;;4.50;;
79143;SDS011;68551;47.484;19.092;2023-04-03T01:34:22;4.75;;;3.92;;
79143;SDS011;68551;47.484;19.092;2023-04-03T01:37:30;5.32;;;3.80;;
79143;SDS011;68551;47.484;19.092;2023-04-03T01:40:35;6.75;;;4.43;;
79143;SDS011;68551;47.484;19.092;2023-04-03T01:43:41;5.88;;;3.85;;
79143;SDS011;68551;47.484;19.092;2023-04-03T01:46:46;6.18;;;4.35;;
79143;SDS011;68551;47.484;19.092;2023-04-03T01:49:49;5.85;;;3.90;;
79143;SDS011;68551;47.484;19.092;2023-04-03T01:52:59;4.82;;;3.80;;
79143;SDS011;68551;47.484;19.092;2023-04-03T01:56:02;6.32;;;3.97;;
79143;SDS011;68551;47.484;19.092;2023-04-03T01:59:08;5.32;;;3.53;;
79143;SDS011;68551;47.484;19.092;2023-04-03T02:02:13;6.53;;;3.88;;
79143;SDS011;68551;47.484;19.092;2023-04-03T02:05:19;5.35;;;3.78;;
79143;SDS011;68551;47.484;19.092;2023-04-03T02:08:24;6.22;;;4.03;;
79143;SDS011;68551;47.484;19.092;2023-04-03T02:11:26;4.70;;;3.38;;
79143;SDS011;68551;47.484;19.092;2023-04-03T02:14:28;4.72;;;3.40;;
79143;SDS011;68551;47.484;19.092;2023-04-03T02:17:31;5.20;;;3.53;;
79143;SDS011;68551;47.484;19.092;2023-04-03T02:20:33;5.32;;;3.65;;
79143;SDS011;68551;47.484;19.092;2023-04-03T02:23:36;6.40;;;3.80;;
79143;SDS011;68551;47.484;19.092;2023-04-03T02:26:39;4.47;;;3.22;;
79143;SDS011;68551;47.484;19.092;2023-04-03T02:29:49;5.13;;;3.42;;
79143;SDS011;68551;47.484;19.092;2023-04-03T02:32:54;4.90;;;3.35;;
79143;SDS011;68551;47.484;19.092;2023-04-03T02:36:02;5.15;;;3.55;;
79143;SDS011;68551;47.484;19.092;2023-04-03T02:39:08;6.75;;;3.92;;
79143;SDS011;68551;47.484;19.092;2023-04-03T02:42:13;4.82;;;3.53;;
79143;SDS011;68551;47.484;19.092;2023-04-03T02:45:18;4.60;;;3.42;;
79143;SDS011;68551;47.484;19.092;2023-04-03T02:48:25;4.47;;;3.30;;
79143;SDS011;68551;47.484;19.092;2023-04-03T02:51:33;4.80;;;3.20;;
79143;SDS011;68551;47.484;19.092;2023-04-03T02:54:35;3.35;;;3.00;;
79143;SDS011;68551;47.484;19.092;2023-04-03T02:57:44;4.82;;;3.60;;
79143;SDS011;68551;47.484;19.092;2023-04-03T03:00:52;5.53;;;3.55;;
79143;SDS011;68551;47.484;19.092;2023-04-03T03:03:55;4.43;;;3.03;;
79143;SDS011;68551;47.484;19.092;2023-04-03T03:07:02;4.03;;;2.97;;
79143;SDS011;68551;47.484;19.092;2023-04-03T03:10:07;4.68;;;3.42;;
79143;SDS011;68551;47.484;19.092;2023-04-03T03:13:12;4.35;;;3.25;;
79143;SDS011;68551;47.484;19.092;2023-04-03T03:16:17;4.95;;;4.00;;
79143;SDS011;68551;47.484;19.092;2023-04-03T03:19:19;4.53;;;3.20;;
79143;SDS011;68551;47.484;19.092;2023-04-03T03:22:29;5.47;;;3.20;;
79143;SDS011;68551;47.484;19.092;2023-04-03T03:25:38;5.07;;;2.90;;
79143;SDS011;68551;47.484;19.092;2023-04-03T03:28:42;5.22;;;3.13;;
79143;SDS011;68551;47.484;19.092;2023-04-03T03:31:46;7.45;;;4.28;;
79143;SDS011;68551;47.484;19.092;2023-04-03T03:34:49;3.60;;;2.72;;
79143;SDS011;68551;47.484;19.092;2023-04-03T03:37:54;5.00;;;3.30;;
79143;SDS011;68551;47.484;19.092;2023-04-03T03:40:56;4.90;;;3.17;;
79143;SDS011;68551;47.484;19.092;2023-04-03T03:44:05;4.22;;;3.33;;
79143;SDS011;68551;47.484;19.092;2023-04-03T03:47:15;3.97;;;2.92;;
79143;SDS011;68551;47.484;19.092;2023-04-03T03:50:20;4.10;;;3.10;;
79143;SDS011;68551;47.484;19.092;2023-04-03T03:53:25;10.13;;;3.38;;
79143;SDS011;68551;47.484;19.092;2023-04-03T03:59:33;4.40;;;3.25;;
79143;SDS011;68551;47.484;19.092;2023-04-03T04:02:36;4.15;;;2.97;;
79143;SDS011;68551;47.484;19.092;2023-04-03T04:05:45;5.68;;;3.22;;
79143;SDS011;68551;47.484;19.092;2023-04-03T04:08:48;5.47;;;3.72;;
79143;SDS011;68551;47.484;19.092;2023-04-03T04:11:56;4.82;;;3.28;;
79143;SDS011;68551;47.484;19.092;2023-04-03T04:18:05;6.43;;;3.53;;
79143;SDS011;68551;47.484;19.092;2023-04-03T04:21:08;6.72;;;4.00;;
79143;SDS011;68551;47.484;19.092;2023-04-03T04:24:17;5.30;;;3.75;;
79143;SDS011;68551;47.484;19.092;2023-04-03T04:27:20;5.65;;;3.42;;
79143;SDS011;68551;47.484;19.092;2023-04-03T04:30:31;5.60;;;3.28;;
79143;SDS011;68551;47.484;19.092;2023-04-03T04:33:34;7.00;;;3.95;;
79143;SDS011;68551;47.484;19.092;2023-04-03T04:36:40;3.95;;;3.38;;
79143;SDS011;68551;47.484;19.092;2023-04-03T04:39:43;4.72;;;3.35;;
79143;SDS011;68551;47.484;19.092;2023-04-03T04:42:45;6.53;;;4.10;;
79143;SDS011;68551;47.484;19.092;2023-04-03T04:45:57;4.80;;;3.53;;
79143;SDS011;68551;47.484;19.092;2023-04-03T04:49:07;7.00;;;3.70;;
79143;SDS011;68551;47.484;19.092;2023-04-03T04:52:12;6.43;;;3.80;;
79143;SDS011;68551;47.484;19.092;2023-04-03T04:55:16;5.50;;;3.60;;
79143;SDS011;68551;47.484;19.092;2023-04-03T04:58:21;5.43;;;3.47;;
79143;SDS011;68551;47.484;19.092;2023-04-03T05:01:27;5.05;;;3.97;;
79143;SDS011;68551;47.484;19.092;2023-04-03T05:04:43;5.65;;;4.10;;
79143;SDS011;68551;47.484;19.092;2023-04-03T05:07:51;6.68;;;4.22;;
79143;SDS011;68551;47.484;19.092;2023-04-03T05:10:56;5.93;;;3.97;;
79143;SDS011;68551;47.484;19.092;2023-04-03T05:17:07;5.15;;;3.42;;
79143;SDS011;68551;47.484;19.092;2023-04-03T05:20:14;7.70;;;4.05;;
79143;SDS011;68551;47.484;19.092;2023-04-03T05:23:20;6.00;;;3.85;;
79143;SDS011;68551;47.484;19.092;2023-04-03T05:26:23;6.20;;;3.90;;
79143;SDS011;68551;47.484;19.092;2023-04-03T05:29:25;4.68;;;3.40;;
79143;SDS011;68551;47.484;19.092;2023-04-03T05:32:33;5.25;;;3.70;;
79143;SDS011;68551;47.484;19.092;2023-04-03T05:35:47;6.30;;;3.88;;
79143;SDS011;68551;47.484;19.092;2023-04-03T05:38:54;5.70;;;3.72;;
79143;SDS011;68551;47.484;19.092;2023-04-03T05:42:01;6.28;;;4.07;;
79143;SDS011;68551;47.484;19.092;2023-04-03T05:45:04;4.70;;;3.30;;
79143;SDS011;68551;47.484;19.092;2023-04-03T05:48:08;5.43;;;3.50;;
79143;SDS011;68551;47.484;19.092;2023-04-03T05:51:15;5.65;;;4.07;;
79143;SDS011;68551;47.484;19.092;2023-04-03T05:54:23;5.20;;;3.92;;
79143;SDS011;68551;47.484;19.092;2023-04-03T05:57:45;4.20;;;3.22;;
79143;SDS011;68551;47.484;19.092;2023-04-03T06:00:52;4.35;;;3.22;;
79143;SDS011;68551;47.484;19.092;2023-04-03T06:03:57;4.75;;;3.55;;
79143;SDS011;68551;47.484;19.092;2023-04-03T06:07:03;6.32;;;4.78;;
79143;SDS011;68551;47.484;19.092;2023-04-03T06:10:10;6.13;;;3.85;;
79143;SDS011;68551;47.484;19.092;2023-04-03T06:13:13;5.60;;;3.72;;
79143;SDS011;68551;47.484;19.092;2023-04-03T06:16:21;6.97;;;3.33;;
79143;SDS011;68551;47.484;19.092;2023-04-03T06:19:25;4.25;;;3.30;;
79143;SDS011;68551;47.484;19.092;2023-04-03T06:22:31;6.78;;;3.90;;
79143;SDS011;68551;47.484;19.092;2023-04-03T06:25:36;5.53;;;3.50;;
79143;SDS011;68551;47.484;19.092;2023-04-03T06:28:38;5.70;;;3.88;;
79143;SDS011;68551;47.484;19.092;2023-04-03T06:31:45;6.60;;;3.58;;
79143;SDS011;68551;47.484;19.092;2023-04-03T06:34:47;5.40;;;3.60;;
79143;SDS011;68551;47.484;19.092;2023-04-03T06:37:55;5.60;;;3.40;;
79143;SDS011;68551;47.484;19.092;2023-04-03T06:40:59;5.00;;;3.75;;
79143;SDS011;68551;47.484;19.092;2023-04-03T06:44:05;4.63;;;3.10;;
79143;SDS011;68551;47.484;19.092;2023-04-03T06:47:09;6.30;;;3.63;;
79143;SDS011;68551;47.484;19.092;2023-04-03T06:50:13;4.78;;;3.20;;
79143;SDS011;68551;47.484;19.092;2023-04-03T06:53:19;4.38;;;2.90;;
79143;SDS011;68551;47.484;19.092;2023-04-03T06:56:23;7.47;;;3.50;;
79143;SDS011;68551;47.484;19.092;2023-04-03T06:59:32;5.30;;;3.67;;
79143;SDS011;68551;47.484;19.092;2023-04-03T07:02:37;4.03;;;3.03;;
79143;SDS011;68551;47.484;19.092;2023-04-03T07:05:42;5.50;;;2.90;;
79143;SDS011;68551;47.484;19.092;2023-04-03T07:08:46;4.65;;;2.97;;
79143;SDS011;68551;47.484;19.092;2023-04-03T07:11:52;3.60;;;2.67;;
79143;SDS011;68551;47.484;19.092;2023-04-03T07:14:54;4.72;;;2.50;;
79143;SDS011;68551;47.484;19.092;2023-04-03T07:17:56;4.72;;;2.70;;
79143;SDS011;68551;47.484;19.092;2023-04-03T07:21:00;4.22;;;2.70;;
79143;SDS011;68551;47.484;19.092;2023-04-03T07:24:03;2.92;;;2.13;;
79143;SDS011;68551;47.484;19.092;2023-04-03T07:27:06;3.10;;;2.15;;
79143;SDS011;68551;47.484;19.092;2023-04-03T07:30:10;3.88;;;2.58;;
79143;SDS011;68551;47.484;19.092;2023-04-03T07:33:16;4.90;;;2.80;;
79143;SDS011;68551;47.484;19.092;2023-04-03T07:36:22;3.00;;;2.15;;
79143;SDS011;68551;47.484;19.092;2023-04-03T07:39:30;2.70;;;2.10;;
79143;SDS011;68551;47.484;19.092;2023-04-03T07:42:32;4.28;;;2.40;;
79143;SDS011;68551;47.484;19.092;2023-04-03T07:45:36;4.20;;;2.45;;
79143;SDS011;68551;47.484;19.092;2023-04-03T07:48:39;4.05;;;3.13;;
79143;SDS011;68551;47.484;19.092;2023-04-03T07:51:44;4.65;;;2.80;;
79143;SDS011;68551;47.484;19.092;2023-04-03T07:54:50;4.80;;;2.60;;
79143;SDS011;68551;47.484;19.092;2023-04-03T07:57:55;3.92;;;2.40;;
79143;SDS011;68551;47.484;19.092;2023-04-03T08:00:59;4.53;;;2.33;;
79143;SDS011;68551;47.484;19.092;2023-04-03T08:04:02;4.88;;;2.38;;
79143;SDS011;68551;47.484;19.092;2023-04-03T08:07:05;3.67;;;2.20;;
79143;SDS011;68551;47.484;19.092;2023-04-03T08:10:08;4.38;;;2.65;;
79143;SDS011;68551;47.484;19.092;2023-04-03T08:13:10;2.85;;;2.40;;
79143;SDS011;68551;47.484;19.092;2023-04-03T08:16:18;3.50;;;2.65;;
79143;SDS011;68551;47.484;19.092;2023-04-03T08:19:27;4.93;;;2.83;;
79143;SDS011;68551;47.484;19.092;2023-04-03T08:22:33;4.28;;;2.60;;
79143;SDS011;68551;47.484;19.092;2023-04-03T08:25:43;5.20;;;2.55;;
79143;SDS011;68551;47.484;19.092;2023-04-03T08:28:45;3.75;;;2.25;;
79143;SDS011;68551;47.484;19.092;2023-04-03T08:31:50;5.70;;;2.65;;
79143;SDS011;68551;47.484;19.092;2023-04-03T08:34:53;3.58;;;2.33;;
79143;SDS011;68551;47.484;19.092;2023-04-03T08:37:58;4.10;;;2.60;;
79143;SDS011;68551;47.484;19.092;2023-04-03T08:47:48;3.65;;;2.22;;
79143;SDS011;68551;47.484;19.092;2023-04-03T08:50:59;3.58;;;2.25;;
79143;SDS011;68551;47.484;19.092;2023-04-03T08:54:24;4.13;;;2.30;;
79143;SDS011;68551;47.484;19.092;2023-04-03T08:57:35;4.65;;;2.78;;
79143;SDS011;68551;47.484;19.092;2023-04-03T09:00:46;3.28;;;2.30;;
79143;SDS011;68551;47.484;19.092;2023-04-03T09:03:53;2.35;;;1.95;;
79143;SDS011;68551;47.484;19.092;2023-04-03T09:06:57;3.05;;;2.58;;
79143;SDS011;68551;47.484;19.092;2023-04-03T09:10:11;2.90;;;2.00;;
79143;SDS011;68551;47.484;19.092;2023-04-03T09:26:56;3.08;;;2.30;;
79143;SDS011;68551;47.484;19.092;2023-04-03T09:30:15;3.80;;;2.30;;
79143;SDS011;68551;47.484;19.092;2023-04-03T09:42:57;4.05;;;2.35;;
79143;SDS011;68551;47.484;19.092;2023-04-03T09:53:24;3.80;;;2.78;;
79143;SDS011;68551;47.484;19.092;2023-04-03T09:56:32;6.05;;;2.90;;
79143;SDS011;68551;47.484;19.092;2023-04-03T09:59:39;3.58;;;2.60;;
79143;SDS011;68551;47.484;19.092;2023-04-03T10:02:47;2.80;;;2.20;;
79143;SDS011;68551;47.484;19.092;2023-04-03T10:05:57;3.45;;;2.30;;
79143;SDS011;68551;47.484;19.092;2023-04-03T10:09:02;3.97;;;2.25;;
79143;SDS011;68551;47.484;19.092;2023-04-03T10:12:10;3.42;;;2.00;;
79143;SDS011;68551;47.484;19.092;2023-04-03T10:15:27;3.28;;;1.83;;
79143;SDS011;68551;47.484;19.092;2023-04-03T10:18:44;2.78;;;2.00;;
79143;SDS011;68551;47.484;19.092;2023-04-03T10:22:00;3.72;;;1.90;;
79143;SDS011;68551;47.484;19.092;2023-04-03T10:28:19;4.00;;;2.13;;
79143;SDS011;68551;47.484;19.092;2023-04-03T10:46:16;2.33;;;1.70;;
79143;SDS011;68551;47.484;19.092;2023-04-03T10:52:59;4.00;;;1.75;;
79143;SDS011;68551;47.484;19.092;2023-04-03T11:03:03;2.78;;;1.75;;
79143;SDS011;68551;47.484;19.092;2023-04-03T11:06:13;2.20;;;1.95;;
79143;SDS011;68551;47.484;19.092;2023-04-03T11:09:35;2.33;;;1.67;;
79143;SDS011;68551;47.484;19.092;2023-04-03T11:12:42;2.70;;;1.73;;
79143;SDS011;68551;47.484;19.092;2023-04-03T11:15:49;2.00;;;1.75;;
79143;SDS011;68551;47.484;19.092;2023-04-03T11:22:33;3.00;;;1.85;;
79143;SDS011;68551;47.484;19.092;2023-04-03T11:25:40;1.98;;;1.63;;
79143;SDS011;68551;47.484;19.092;2023-04-03T11:28:46;1.73;;;1.42;;
79143;SDS011;68551;47.484;19.092;2023-04-03T11:35:07;3.50;;;1.85;;
79143;SDS011;68551;47.484;19.092;2023-04-03T11:41:31;2.50;;;1.80;;
79143;SDS011;68551;47.484;19.092;2023-04-03T11:44:39;4.72;;;2.05;;
79143;SDS011;68551;47.484;19.092;2023-04-03T11:47:45;3.22;;;1.77;;
79143;SDS011;68551;47.484;19.092;2023-04-03T11:50:53;4.55;;;1.92;;
79143;SDS011;68551;47.484;19.092;2023-04-03T11:54:15;1.58;;;1.20;;
79143;SDS011;68551;47.484;19.092;2023-04-03T11:58:01;3.40;;;1.80;;
79143;SDS011;68551;47.484;19.092;2023-04-03T12:05:23;2.45;;;1.75;;
79143;SDS011;68551;47.484;19.092;2023-04-03T12:11:46;2.42;;;2.17;;
79143;SDS011;68551;47.484;19.092;2023-04-03T12:14:51;1.73;;;1.33;;
79143;SDS011;68551;47.484;19.092;2023-04-03T12:17:54;2.65;;;1.70;;
79143;SDS011;68551;47.484;19.092;2023-04-03T12:20:59;2.35;;;1.75;;
79143;SDS011;68551;47.484;19.092;2023-04-03T12:27:17;2.55;;;1.65;;
79143;SDS011;68551;47.484;19.092;2023-04-03T12:30:25;4.18;;;1.63;;
79143;SDS011;68551;47.484;19.092;2023-04-03T12:33:38;2.92;;;2.10;;
79143;SDS011;68551;47.484;19.092;2023-04-03T12:37:17;1.73;;;1.40;;
79143;SDS011;68551;47.484;19.092;2023-04-03T12:47:31;2.80;;;1.48;;
79143;SDS011;68551;47.484;19.092;2023-04-03T12:50:40;2.38;;;1.70;;
79143;SDS011;68551;47.484;19.092;2023-04-03T12:53:47;2.90;;;1.40;;
79143;SDS011;68551;47.484;19.092;2023-04-03T12:57:11;2.58;;;1.75;;
79143;SDS011;68551;47.484;19.092;2023-04-03T13:00:33;1.50;;;1.30;;
79143;SDS011;68551;47.484;19.092;2023-04-03T13:03:38;2.33;;;1.50;;
79143;SDS011;68551;47.484;19.092;2023-04-03T13:06:42;2.97;;;1.50;;
79143;SDS011;68551;47.484;19.092;2023-04-03T13:09:54;3.03;;;1.45;;
79143;SDS011;68551;47.484;19.092;2023-04-03T13:12:58;2.78;;;1.50;;
79143;SDS011;68551;47.484;19.092;2023-04-03T13:16:11;1.95;;;1.60;;
79143;SDS011;68551;47.484;19.092;2023-04-03T13:19:16;2.17;;;1.50;;
79143;SDS011;68551;47.484;19.092;2023-04-03T13:25:25;2.25;;;1.60;;
79143;SDS011;68551;47.484;19.092;2023-04-03T13:28:34;3.55;;;1.75;;
79143;SDS011;68551;47.484;19.092;2023-04-03T13:31:40;2.35;;;1.63;;
79143;SDS011;68551;47.484;19.092;2023-04-03T13:34:45;2.10;;;1.50;;
79143;SDS011;68551;47.484;19.092;2023-04-03T13:37:56;2.20;;;1.73;;
79143;SDS011;68551;47.484;19.092;2023-04-03T13:41:01;2.67;;;1.75;;
79143;SDS011;68551;47.484;19.092;2023-04-03T13:47:27;2.97;;;1.90;;
79143;SDS011;68551;47.484;19.092;2023-04-03T13:50:55;2.00;;;1.50;;
79143;SDS011;68551;47.484;19.092;2023-04-03T13:57:22;2.67;;;1.60;;
79143;SDS011;68551;47.484;19.092;2023-04-03T14:06:48;2.88;;;1.52;;
79143;SDS011;68551;47.484;19.092;2023-04-03T14:09:53;2.33;;;1.40;;
79143;SDS011;68551;47.484;19.092;2023-04-03T14:12:56;2.13;;;1.50;;
79143;SDS011;68551;47.484;19.092;2023-04-03T14:15:58;2.83;;;1.70;;
79143;SDS011;68551;47.484;19.092;2023-04-03T14:19:21;2.85;;;1.70;;
79143;SDS011;68551;47.484;19.092;2023-04-03T14:22:32;2.35;;;1.40;;
79143;SDS011;68551;47.484;19.092;2023-04-03T14:25:37;1.88;;;1.45;;
79143;SDS011;68551;47.484;19.092;2023-04-03T14:28:45;2.03;;;1.50;;
79143;SDS011;68551;47.484;19.092;2023-04-03T14:31:49;1.85;;;1.55;;
79143;SDS011;68551;47.484;19.092;2023-04-03T14:35:17;2.05;;;1.52;;
79143;SDS011;68551;47.484;19.092;2023-04-03T14:38:25;2.10;;;1.52;;
79143;SDS011;68551;47.484;19.092;2023-04-03T14:41:31;2.40;;;1.60;;
79143;SDS011;68551;47.484;19.092;2023-04-03T14:44:34;1.70;;;1.30;;
79143;SDS011;68551;47.484;19.092;2023-04-03T14:47:46;2.08;;;1.48;;
79143;SDS011;68551;47.484;19.092;2023-04-03T14:50:54;3.58;;;1.70;;
79143;SDS011;68551;47.484;19.092;2023-04-03T14:54:11;2.92;;;1.58;;
79143;SDS011;68551;47.484;19.092;2023-04-03T14:57:18;1.58;;;1.40;;
79143;SDS011;68551;47.484;19.092;2023-04-03T15:00:22;3.42;;;1.80;;
79143;SDS011;68551;47.484;19.092;2023-04-03T15:03:25;3.08;;;2.00;;
79143;SDS011;68551;47.484;19.092;2023-04-03T15:06:27;2.53;;;1.63;;
79143;SDS011;68551;47.484;19.092;2023-04-03T15:09:32;2.47;;;1.63;;
79143;SDS011;68551;47.484;19.092;2023-04-03T15:12:39;5.68;;;1.98;;
79143;SDS011;68551;47.484;19.092;2023-04-03T15:15:45;2.50;;;1.63;;
79143;SDS011;68551;47.484;19.092;2023-04-03T15:18:47;2.65;;;1.80;;
79143;SDS011;68551;47.484;19.092;2023-04-03T15:21:52;7.00;;;1.98;;
79143;SDS011;68551;47.484;19.092;2023-04-03T15:24:55;3.75;;;1.60;;
79143;SDS011;68551;47.484;19.092;2023-04-03T15:27:57;3.13;;;1.80;;
79143;SDS011;68551;47.484;19.092;2023-04-03T15:31:00;2.90;;;1.98;;
79143;SDS011;68551;47.484;19.092;2023-04-03T15:34:02;2.33;;;1.58;;
79143;SDS011;68551;47.484;19.092;2023-04-03T15:37:07;2.88;;;1.88;;
79143;SDS011;68551;47.484;19.092;2023-04-03T15:40:09;2.35;;;1.77;;
79143;SDS011;68551;47.484;19.092;2023-04-03T15:43:12;3.20;;;2.45;;
79143;SDS011;68551;47.484;19.092;2023-04-03T15:46:15;2.65;;;1.98;;
79143;SDS011;68551;47.484;19.092;2023-04-03T15:49:20;3.00;;;1.70;;
79143;SDS011;68551;47.484;19.092;2023-04-03T15:52:26;4.97;;;2.13;;
79143;SDS011;68551;47.484;19.092;2023-04-03T15:55:29;4.28;;;2.10;;
79143;SDS011;68551;47.484;19.092;2023-04-03T15:58:36;3.85;;;2.38;;
79143;SDS011;68551;47.484;19.092;2023-04-03T16:01:38;2.70;;;2.00;;
79143;SDS011;68551;47.484;19.092;2023-04-03T16:04:43;3.78;;;2.03;;
79143;SDS011;68551;47.484;19.092;2023-04-03T16:07:48;5.03;;;2.08;;
79143;SDS011;68551;47.484;19.092;2023-04-03T16:10:56;3.85;;;2.22;;
79143;SDS011;68551;47.484;19.092;2023-04-03T16:14:06;2.90;;;2.20;;
79143;SDS011;68551;47.484;19.092;2023-04-03T16:17:12;4.63;;;2.20;;
79143;SDS011;68551;47.484;19.092;2023-04-03T16:20:17;4.43;;;2.35;;
79143;SDS011;68551;47.484;19.092;2023-04-03T16:23:21;2.45;;;1.80;;
79143;SDS011;68551;47.484;19.092;2023-04-03T16:26:24;3.45;;;2.00;;
79143;SDS011;68551;47.484;19.092;2023-04-03T16:29:29;3.20;;;2.17;;
79143;SDS011;68551;47.484;19.092;2023-04-03T16:32:34;2.85;;;1.90;;
79143;SDS011;68551;47.484;19.092;2023-04-03T16:35:38;3.22;;;2.13;;
79143;SDS011;68551;47.484;19.092;2023-04-03T16:38:46;2.88;;;1.90;;
79143;SDS011;68551;47.484;19.092;2023-04-03T16:41:51;4.32;;;1.80;;
79143;SDS011;68551;47.484;19.092;2023-04-03T16:44:53;3.72;;;2.15;;
79143;SDS011;68551;47.484;19.092;2023-04-03T16:47:55;3.13;;;1.90;;
79143;SDS011;68551;47.484;19.092;2023-04-03T16:50:58;2.50;;;2.10;;
79143;SDS011;68551;47.484;19.092;2023-04-03T16:54:00;3.13;;;1.95;;
79143;SDS011;68551;47.484;19.092;2023-04-03T16:57:05;4.35;;;2.60;;
79143;SDS011;68551;47.484;19.092;2023-04-03T17:00:07;3.58;;;2.03;;
79143;SDS011;68551;47.484;19.092;2023-04-03T17:03:10;6.90;;;2.22;;
79143;SDS011;68551;47.484;19.092;2023-04-03T17:06:16;3.35;;;2.38;;
79143;SDS011;68551;47.484;19.092;2023-04-03T17:09:25;3.47;;;2.10;;
79143;SDS011;68551;47.484;19.092;2023-04-03T17:12:28;3.97;;;1.80;;
79143;SDS011;68551;47.484;19.092;2023-04-03T17:15:30;2.72;;;1.58;;
79143;SDS011;68551;47.484;19.092;2023-04-03T17:18:38;3.38;;;1.60;;
79143;SDS011;68551;47.484;19.092;2023-04-03T17:24:48;3.05;;;2.00;;
79143;SDS011;68551;47.484;19.092;2023-04-03T17:27:50;3.45;;;2.20;;
79143;SDS011;68551;47.484;19.092;2023-04-03T17:30:56;3.35;;;1.90;;
79143;SDS011;68551;47.484;19.092;2023-04-03T17:34:00;3.47;;;1.98;;
79143;SDS011;68551;47.484;19.092;2023-04-03T17:37:06;2.80;;;1.88;;
79143;SDS011;68551;47.484;19.092;2023-04-03T17:40:09;4.78;;;2.03;;
79143;SDS011;68551;47.484;19.092;2023-04-03T17:43:15;3.85;;;2.15;;
79143;SDS011;68551;47.484;19.092;2023-04-03T17:46:20;3.53;;;2.33;;
79143;SDS011;68551;47.484;19.092;2023-04-03T17:49:25;3.42;;;2.10;;
79143;SDS011;68551;47.484;19.092;2023-04-03T17:52:27;4.28;;;2.42;;
79143;SDS011;68551;47.484;19.092;2023-04-03T17:55:38;2.90;;;1.80;;
79143;SDS011;68551;47.484;19.092;2023-04-03T17:58:41;3.85;;;2.28;;
79143;SDS011;68551;47.484;19.092;2023-04-03T18:01:45;3.55;;;2.25;;
79143;SDS011;68551;47.484;19.092;2023-04-03T18:04:54;3.47;;;1.95;;
79143;SDS011;68551;47.484;19.092;2023-04-03T18:07:57;3.22;;;2.10;;
79143;SDS011;68551;47.484;19.092;2023-04-03T18:11:04;3.15;;;2.00;;
79143;SDS011;68551;47.484;19.092;2023-04-03T18:14:08;3.83;;;2.13;;
79143;SDS011;68551;47.484;19.092;2023-04-03T18:17:11;2.28;;;1.90;;
79143;SDS011;68551;47.484;19.092;2023-04-03T18:20:13;3.55;;;2.15;;
79143;SDS011;68551;47.484;19.092;2023-04-03T18:23:24;4.13;;;1.80;;
79143;SDS011;68551;47.484;19.092;2023-04-03T18:26:31;3.75;;;2.28;;
79143;SDS011;68551;47.484;19.092;2023-04-03T18:29:36;3.88;;;2.53;;
79143;SDS011;68551;47.484;19.092;2023-04-03T18:32:41;3.55;;;1.67;;
79143;SDS011;68551;47.484;19.092;2023-04-03T18:38:52;3.05;;;2.10;;
79143;SDS011;68551;47.484;19.092;2023-04-03T18:41:55;2.55;;;1.70;;
79143;SDS011;68551;47.484;19.092;2023-04-03T18:45:01;4.93;;;2.10;;
79143;SDS011;68551;47.484;19.092;2023-04-03T18:48:06;3.22;;;1.85;;
79143;SDS011;68551;47.484;19.092;2023-04-03T18:51:09;3.75;;;2.20;;
79143;SDS011;68551;47.484;19.092;2023-04-03T18:57:17;3.20;;;2.00;;
79143;SDS011;68551;47.484;19.092;2023-04-03T19:00:19;3.88;;;2.20;;
79143;SDS011;68551;47.484;19.092;2023-04-03T19:03:21;3.40;;;2.20;;
79143;SDS011;68551;47.484;19.092;2023-04-03T19:06:26;2.92;;;1.75;;
79143;SDS011;68551;47.484;19.092;2023-04-03T19:09:32;2.78;;;1.75;;
79143;SDS011;68551;47.484;19.092;2023-04-03T19:12:36;3.28;;;2.05;;
79143;SDS011;68551;47.484;19.092;2023-04-03T19:15:40;3.15;;;1.92;;
79143;SDS011;68551;47.484;19.092;2023-04-03T19:18:45;2.33;;;1.67;;
79143;SDS011;68551;47.484;19.092;2023-04-03T19:21:52;3.58;;;2.10;;
79143;SDS011;68551;47.484;19.092;2023-04-03T19:24:54;2.40;;;1.90;;
79143;SDS011;68551;47.484;19.092;2023-04-03T19:27:57;2.30;;;1.70;;
79143;SDS011;68551;47.484;19.092;2023-04-03T19:31:05;5.30;;;2.80;;
79143;SDS011;68551;47.484;19.092;2023-04-03T19:34:14;2.80;;;1.90;;
79143;SDS011;68551;47.484;19.092;2023-04-03T19:37:16;4.05;;;2.00;;
79143;SDS011;68551;47.484;19.092;2023-04-03T19:40:21;3.15;;;1.85;;
79143;SDS011;68551;47.484;19.092;2023-04-03T19:43:26;2.20;;;1.67;;
79143;SDS011;68551;47.484;19.092;2023-04-03T19:46:32;5.13;;;2.25;;
79143;SDS011;68551;47.484;19.092;2023-04-03T19:49:35;2.45;;;1.80;;
79143;SDS011;68551;47.484;19.092;2023-04-03T19:52:38;3.38;;;2.60;;
79143;SDS011;68551;47.484;19.092;2023-04-03T19:55:47;2.45;;;1.85;;
79143;SDS011;68551;47.484;19.092;2023-04-03T19:58:52;2.35;;;1.83;;
79143;SDS011;68551;47.484;19.092;2023-04-03T20:01:55;2.92;;;1.73;;
79143;SDS011;68551;47.484;19.092;2023-04-03T20:04:58;3.42;;;1.90;;
79143;SDS011;68551;47.484;19.092;2023-04-03T20:08:00;4.13;;;2.00;;
79143;SDS011;68551;47.484;19.092;2023-04-03T20:11:03;2.60;;;1.45;;
79143;SDS011;68551;47.484;19.092;2023-04-03T20:14:06;2.80;;;1.75;;
79143;SDS011;68551;47.484;19.092;2023-04-03T20:17:11;3.35;;;2.08;;
79143;SDS011;68551;47.484;19.092;2023-04-03T20:20:14;5.07;;;1.92;;
79143;SDS011;68551;47.484;19.092;2023-04-03T20:23:22;3.42;;;1.58;;
79143;SDS011;68551;47.484;19.092;2023-04-03T20:26:29;4.32;;;3.10;;
79143;SDS011;68551;47.484;19.092;2023-04-03T20:29:34;3.22;;;1.75;;
79143;SDS011;68551;47.484;19.092;2023-04-03T20:32:40;3.17;;;1.83;;
79143;SDS011;68551;47.484;19.092;2023-04-03T20:35:44;3.65;;;1.98;;
79143;SDS011;68551;47.484;19.092;2023-04-03T20:38:50;2.72;;;1.70;;